Flugplatz - Wetter - Augsburg

[Quelle: ADDS]
METAR
EDMA 280620Z 26009KT 9999 FEW010 16/14 Q1014 =
TAF
EDMA 280500Z 2806/2815 26010KT 9999 SCT030 =
SR / SS: 03:50 / 19:01 UTC (Günzburg 2017-07-28)

Flugplatz - Wetter - Laupheim

[Quelle: ADDS]
METAR
ETHL 280620Z 34003KT 9999 FEW006 BKN030 BKN100 14/13 Q1015 BLU BLU =
TAF
COR ETHL 280445Z 2805/2814 25012KT 9999 NSW FEW020 BKN050 BKN100 TEMPO 2805/2808 27010G20KT 9999 RA SCT015 BKN030 BKN080 =

Notice: Undefined index: sun in /homepages/1/d158740339/htdocs/joomla/modules/mod_wx/tmpl/default.php on line 13

Flugplatz - Wetter - Memmingen

[Quelle: ADDS]
METAR
EDJA 280620Z 25004KT 210V300 4500 -RA FEW003 BKN018 BKN037 15/14 Q1015 =
TAF
EDJA 280500Z 2806/2815 24005KT 9999 BKN030 BECMG 2808/2810 26010KT =

Notice: Undefined index: sun in /homepages/1/d158740339/htdocs/joomla/modules/mod_wx/tmpl/default.php on line 13

Flugplatz - Wetter - Neuburg/Donau

[Quelle: ADDS]
METAR
ETSN 280620Z 27006KT 9999 FEW010 BKN110 17/14 Q1014 BLU BLU BECMG BLU+ =
TAF
ETSN 280420Z 2805/2814 26008KT 9999 NSW FEW015 SCT040 BY ETGL =

Notice: Undefined index: sun in /homepages/1/d158740339/htdocs/joomla/modules/mod_wx/tmpl/default.php on line 13

Flugplatz - Wetter - Stuttgart

[Quelle: ADDS]
METAR
EDDS 280620Z 26006KT 230V290 9999 FEW022 BKN097 16/13 Q1014 NOSIG =
TAF
EDDS 280500Z 2806/2906 22004KT 9999 SCT040 BECMG 2807/2809 28008KT BECMG 2818/2820 VRB03KT =

Notice: Undefined index: sun in /homepages/1/d158740339/htdocs/joomla/modules/mod_wx/tmpl/default.php on line 13

Flugplatz - Wetter - Niederstetten

[Quelle: ADDS]
METAR
ETHN 280520Z 26007KT 9999 FEW006 SCT040 14/13 Q1013 BLU+BLU+ =
TAF
COR ETHN 280442Z 2805/2814 27012KT 9999 NSW SCT020 =

Notice: Undefined index: sun in /homepages/1/d158740339/htdocs/joomla/modules/mod_wx/tmpl/default.php on line 13